sensor_id;sensor_type;location;lat;lon;timestamp;temperature;humidity
18880;DHT22;9572;52.378;13.404;2024-03-25T00:00:24;6.00;99.90
18880;DHT22;9572;52.378;13.404;2024-03-25T00:02:51;6.00;99.90
18880;DHT22;9572;52.378;13.404;2024-03-25T00:05:17;6.00;99.90
18880;DHT22;9572;52.378;13.404;2024-03-25T00:07:48;6.00;99.90
18880;DHT22;9572;52.378;13.404;2024-03-25T00:10:16;6.10;99.90
18880;DHT22;9572;52.378;13.404;2024-03-25T00:12:42;6.10;99.90
18880;DHT22;9572;52.378;13.404;2024-03-25T00:15:09;6.00;99.90
18880;DHT22;9572;52.378;13.404;2024-03-25T00:17:35;6.00;99.90
18880;DHT22;9572;52.378;13.404;2024-03-25T00:20:01;6.00;99.90
18880;DHT22;9572;52.378;13.404;2024-03-25T00:22:31;6.00;99.90
18880;DHT22;9572;52.378;13.404;2024-03-25T00:24:58;5.90;99.90
18880;DHT22;9572;52.378;13.404;2024-03-25T00:27:25;5.90;99.90
18880;DHT22;9572;52.378;13.404;2024-03-25T00:29:51;5.90;99.90
18880;DHT22;9572;52.378;13.404;2024-03-25T00:32:17;6.00;99.90
18880;DHT22;9572;52.378;13.404;2024-03-25T00:34:44;6.00;99.90
18880;DHT22;9572;52.378;13.404;2024-03-25T00:37:10;6.10;99.90
18880;DHT22;9572;52.378;13.404;2024-03-25T00:39:36;6.00;99.90
18880;DHT22;9572;52.378;13.404;2024-03-25T00:42:03;6.00;99.90
18880;DHT22;9572;52.378;13.404;2024-03-25T00:44:31;6.10;99.90
18880;DHT22;9572;52.378;13.404;2024-03-25T00:46:56;6.10;99.90
18880;DHT22;9572;52.378;13.404;2024-03-25T00:49:23;6.00;99.90
18880;DHT22;9572;52.378;13.404;2024-03-25T00:51:49;6.00;99.90
18880;DHT22;9572;52.378;13.404;2024-03-25T00:54:16;6.00;99.90
18880;DHT22;9572;52.378;13.404;2024-03-25T00:56:42;6.10;99.90
18880;DHT22;9572;52.378;13.404;2024-03-25T00:59:09;6.10;99.90
18880;DHT22;9572;52.378;13.404;2024-03-25T01:01:36;6.00;99.90
18880;DHT22;9572;52.378;13.404;2024-03-25T01:04:03;6.10;99.90
18880;DHT22;9572;52.378;13.404;2024-03-25T01:06:29;6.00;99.90
18880;DHT22;9572;52.378;13.404;2024-03-25T01:08:56;6.00;99.90
18880;DHT22;9572;52.378;13.404;2024-03-25T01:11:22;6.10;99.90
18880;DHT22;9572;52.378;13.404;2024-03-25T01:13:49;6.10;99.90
18880;DHT22;9572;52.378;13.404;2024-03-25T01:16:14;6.00;99.90
18880;DHT22;9572;52.378;13.404;2024-03-25T01:18:43;6.00;99.90
18880;DHT22;9572;52.378;13.404;2024-03-25T01:21:09;6.10;99.90
18880;DHT22;9572;52.378;13.404;2024-03-25T01:23:36;6.10;99.90
18880;DHT22;9572;52.378;13.404;2024-03-25T01:26:01;6.10;99.90
18880;DHT22;9572;52.378;13.404;2024-03-25T01:28:28;6.00;99.90
18880;DHT22;9572;52.378;13.404;2024-03-25T01:30:54;6.00;99.90
18880;DHT22;9572;52.378;13.404;2024-03-25T01:33:21;6.00;99.90
18880;DHT22;9572;52.378;13.404;2024-03-25T01:35:48;5.90;99.90
18880;DHT22;9572;52.378;13.404;2024-03-25T01:38:14;5.90;99.90
18880;DHT22;9572;52.378;13.404;2024-03-25T01:40:40;5.90;99.90
18880;DHT22;9572;52.378;13.404;2024-03-25T01:43:07;5.80;99.90
18880;DHT22;9572;52.378;13.404;2024-03-25T01:45:34;5.90;99.90
18880;DHT22;9572;52.378;13.404;2024-03-25T01:48:03;5.90;99.90
18880;DHT22;9572;52.378;13.404;2024-03-25T01:50:31;5.80;99.90
18880;DHT22;9572;52.378;13.404;2024-03-25T01:53:01;5.90;99.90
18880;DHT22;9572;52.378;13.404;2024-03-25T01:55:29;5.90;99.90
18880;DHT22;9572;52.378;13.404;2024-03-25T01:57:57;5.90;99.90
18880;DHT22;9572;52.378;13.404;2024-03-25T02:00:24;5.80;99.90
18880;DHT22;9572;52.378;13.404;2024-03-25T02:02:53;5.80;99.90
18880;DHT22;9572;52.378;13.404;2024-03-25T02:05:20;5.80;99.90
18880;DHT22;9572;52.378;13.404;2024-03-25T02:07:48;5.80;99.90
18880;DHT22;9572;52.378;13.404;2024-03-25T02:10:16;5.80;99.90
18880;DHT22;9572;52.378;13.404;2024-03-25T02:12:44;5.90;99.90
18880;DHT22;9572;52.378;13.404;2024-03-25T02:15:10;5.90;99.90
18880;DHT22;9572;52.378;13.404;2024-03-25T02:17:37;5.90;99.90
18880;DHT22;9572;52.378;13.404;2024-03-25T02:20:03;5.90;99.90
18880;DHT22;9572;52.378;13.404;2024-03-25T02:22:31;5.90;99.90
18880;DHT22;9572;52.378;13.404;2024-03-25T02:24:57;5.90;99.90
18880;DHT22;9572;52.378;13.404;2024-03-25T02:27:26;5.80;99.90
18880;DHT22;9572;52.378;13.404;2024-03-25T02:29:53;5.80;99.90
18880;DHT22;9572;52.378;13.404;2024-03-25T02:32:20;5.80;99.90
18880;DHT22;9572;52.378;13.404;2024-03-25T02:34:49;5.80;99.90
18880;DHT22;9572;52.378;13.404;2024-03-25T02:37:16;5.80;99.90
18880;DHT22;9572;52.378;13.404;2024-03-25T02:39:43;5.90;99.90
18880;DHT22;9572;52.378;13.404;2024-03-25T02:42:10;5.80;99.90
18880;DHT22;9572;52.378;13.404;2024-03-25T02:44:37;5.80;99.90
18880;DHT22;9572;52.378;13.404;2024-03-25T02:47:05;5.80;99.90
18880;DHT22;9572;52.378;13.404;2024-03-25T02:49:30;5.80;99.90
18880;DHT22;9572;52.378;13.404;2024-03-25T02:51:57;5.80;99.90
18880;DHT22;9572;52.378;13.404;2024-03-25T02:54:23;5.80;99.90
18880;DHT22;9572;52.378;13.404;2024-03-25T02:56:50;5.80;99.90
18880;DHT22;9572;52.378;13.404;2024-03-25T02:59:15;5.80;99.90
18880;DHT22;9572;52.378;13.404;2024-03-25T03:01:43;5.80;99.90
18880;DHT22;9572;52.378;13.404;2024-03-25T03:04:09;5.80;99.90
18880;DHT22;9572;52.378;13.404;2024-03-25T03:06:36;5.80;99.90
18880;DHT22;9572;52.378;13.404;2024-03-25T03:09:01;5.80;99.90
18880;DHT22;9572;52.378;13.404;2024-03-25T03:11:28;5.80;99.90
18880;DHT22;9572;52.378;13.404;2024-03-25T03:13:54;5.80;99.90
18880;DHT22;9572;52.378;13.404;2024-03-25T03:16:21;5.70;99.90
18880;DHT22;9572;52.378;13.404;2024-03-25T03:18:48;5.80;99.90
18880;DHT22;9572;52.378;13.404;2024-03-25T03:21:15;5.90;99.90
18880;DHT22;9572;52.378;13.404;2024-03-25T03:23:40;5.90;99.90
18880;DHT22;9572;52.378;13.404;2024-03-25T03:26:07;5.80;99.90
18880;DHT22;9572;52.378;13.404;2024-03-25T03:28:33;5.90;99.90
18880;DHT22;9572;52.378;13.404;2024-03-25T03:31:00;5.90;99.90
18880;DHT22;9572;52.378;13.404;2024-03-25T03:33:25;5.80;99.90
18880;DHT22;9572;52.378;13.404;2024-03-25T03:35:54;5.80;99.90
18880;DHT22;9572;52.378;13.404;2024-03-25T03:38:21;5.80;99.90
18880;DHT22;9572;52.378;13.404;2024-03-25T03:40:56;5.90;99.90
18880;DHT22;9572;52.378;13.404;2024-03-25T03:43:22;5.80;99.90
18880;DHT22;9572;52.378;13.404;2024-03-25T03:45:49;5.80;99.90
18880;DHT22;9572;52.378;13.404;2024-03-25T03:48:14;5.80;99.90
18880;DHT22;9572;52.378;13.404;2024-03-25T03:50:42;5.80;99.90
18880;DHT22;9572;52.378;13.404;2024-03-25T03:53:09;5.80;99.90
18880;DHT22;9572;52.378;13.404;2024-03-25T03:55:36;5.80;99.90
18880;DHT22;9572;52.378;13.404;2024-03-25T03:58:02;5.80;99.90
18880;DHT22;9572;52.378;13.404;2024-03-25T04:00:29;5.80;99.90
18880;DHT22;9572;52.378;13.404;2024-03-25T04:02:54;5.80;99.90
18880;DHT22;9572;52.378;13.404;2024-03-25T04:05:21;5.70;99.90
18880;DHT22;9572;52.378;13.404;2024-03-25T04:07:47;5.70;99.90
18880;DHT22;9572;52.378;13.404;2024-03-25T04:10:15;5.70;99.90
18880;DHT22;9572;52.378;13.404;2024-03-25T04:12:41;5.70;99.90
18880;DHT22;9572;52.378;13.404;2024-03-25T04:15:08;5.70;99.90
18880;DHT22;9572;52.378;13.404;2024-03-25T04:17:34;5.80;99.90
18880;DHT22;9572;52.378;13.404;2024-03-25T04:20:01;5.80;99.90
18880;DHT22;9572;52.378;13.404;2024-03-25T04:22:31;5.80;99.90
18880;DHT22;9572;52.378;13.404;2024-03-25T04:24:58;5.80;99.90
18880;DHT22;9572;52.378;13.404;2024-03-25T04:27:25;5.70;99.90
18880;DHT22;9572;52.378;13.404;2024-03-25T04:29:52;5.80;99.90
18880;DHT22;9572;52.378;13.404;2024-03-25T04:32:18;5.80;99.90
18880;DHT22;9572;52.378;13.404;2024-03-25T04:34:44;5.80;99.90
18880;DHT22;9572;52.378;13.404;2024-03-25T04:37:11;5.80;99.90
18880;DHT22;9572;52.378;13.404;2024-03-25T04:39:37;5.80;99.90
18880;DHT22;9572;52.378;13.404;2024-03-25T04:42:03;5.80;99.90
18880;DHT22;9572;52.378;13.404;2024-03-25T04:44:30;5.80;99.90
18880;DHT22;9572;52.378;13.404;2024-03-25T04:46:56;5.80;99.90
18880;DHT22;9572;52.378;13.404;2024-03-25T04:49:22;5.80;99.90
18880;DHT22;9572;52.378;13.404;2024-03-25T04:51:47;5.80;99.90
18880;DHT22;9572;52.378;13.404;2024-03-25T04:54:13;5.70;99.90
18880;DHT22;9572;52.378;13.404;2024-03-25T04:56:39;5.80;99.90
18880;DHT22;9572;52.378;13.404;2024-03-25T04:59:05;5.70;99.90
18880;DHT22;9572;52.378;13.404;2024-03-25T05:01:32;5.80;99.90
18880;DHT22;9572;52.378;13.404;2024-03-25T05:03:58;5.80;99.90
18880;DHT22;9572;52.378;13.404;2024-03-25T05:06:24;5.80;99.90
18880;DHT22;9572;52.378;13.404;2024-03-25T05:08:50;5.80;99.90
18880;DHT22;9572;52.378;13.404;2024-03-25T05:11:15;5.80;99.90
18880;DHT22;9572;52.378;13.404;2024-03-25T05:13:41;5.80;99.90
18880;DHT22;9572;52.378;13.404;2024-03-25T05:16:07;5.80;99.90
18880;DHT22;9572;52.378;13.404;2024-03-25T05:18:34;5.80;99.90
18880;DHT22;9572;52.378;13.404;2024-03-25T05:21:00;5.80;99.90
18880;DHT22;9572;52.378;13.404;2024-03-25T05:23:26;5.80;99.90
18880;DHT22;9572;52.378;13.404;2024-03-25T05:25:52;5.90;99.90
18880;DHT22;9572;52.378;13.404;2024-03-25T05:28:17;5.90;99.90
18880;DHT22;9572;52.378;13.404;2024-03-25T05:30:43;5.90;99.90
18880;DHT22;9572;52.378;13.404;2024-03-25T05:33:10;5.90;99.90
18880;DHT22;9572;52.378;13.404;2024-03-25T05:35:37;5.80;99.90
18880;DHT22;9572;52.378;13.404;2024-03-25T05:38:03;5.90;99.90
18880;DHT22;9572;52.378;13.404;2024-03-25T05:40:29;5.90;99.90
18880;DHT22;9572;52.378;13.404;2024-03-25T05:42:55;5.80;99.90
18880;DHT22;9572;52.378;13.404;2024-03-25T05:45:21;5.80;99.90
18880;DHT22;9572;52.378;13.404;2024-03-25T05:47:46;5.80;99.90
18880;DHT22;9572;52.378;13.404;2024-03-25T05:50:12;5.90;99.90
18880;DHT22;9572;52.378;13.404;2024-03-25T05:52:39;5.90;99.90
18880;DHT22;9572;52.378;13.404;2024-03-25T05:55:05;5.80;99.90
18880;DHT22;9572;52.378;13.404;2024-03-25T05:57:31;5.90;99.90
18880;DHT22;9572;52.378;13.404;2024-03-25T05:59:57;5.80;99.90
18880;DHT22;9572;52.378;13.404;2024-03-25T06:02:23;5.80;99.90
18880;DHT22;9572;52.378;13.404;2024-03-25T06:04:49;5.80;99.90
18880;DHT22;9572;52.378;13.404;2024-03-25T06:07:15;5.80;99.90
18880;DHT22;9572;52.378;13.404;2024-03-25T06:09:42;5.80;99.90
18880;DHT22;9572;52.378;13.404;2024-03-25T06:12:08;5.90;99.90
18880;DHT22;9572;52.378;13.404;2024-03-25T06:14:34;5.80;99.90
18880;DHT22;9572;52.378;13.404;2024-03-25T06:16:59;5.90;99.90
18880;DHT22;9572;52.378;13.404;2024-03-25T06:19:25;5.90;99.90
18880;DHT22;9572;52.378;13.404;2024-03-25T06:21:51;5.90;99.90
18880;DHT22;9572;52.378;13.404;2024-03-25T06:24:17;5.90;99.90
18880;DHT22;9572;52.378;13.404;2024-03-25T06:26:44;6.00;99.90
18880;DHT22;9572;52.378;13.404;2024-03-25T06:29:10;6.00;99.90
18880;DHT22;9572;52.378;13.404;2024-03-25T06:31:36;6.00;99.90
18880;DHT22;9572;52.378;13.404;2024-03-25T06:34:20;6.00;99.90
18880;DHT22;9572;52.378;13.404;2024-03-25T06:36:46;6.00;99.90
18880;DHT22;9572;52.378;13.404;2024-03-25T06:39:12;5.90;99.90
18880;DHT22;9572;52.378;13.404;2024-03-25T06:41:38;5.90;99.90
18880;DHT22;9572;52.378;13.404;2024-03-25T06:44:06;6.00;99.90
18880;DHT22;9572;52.378;13.404;2024-03-25T06:46:32;6.00;99.90
18880;DHT22;9572;52.378;13.404;2024-03-25T06:48:57;6.10;99.90
18880;DHT22;9572;52.378;13.404;2024-03-25T06:51:23;6.00;99.90
18880;DHT22;9572;52.378;13.404;2024-03-25T06:53:49;6.00;99.90
18880;DHT22;9572;52.378;13.404;2024-03-25T06:56:15;6.10;99.90
18880;DHT22;9572;52.378;13.404;2024-03-25T06:58:41;6.00;99.90
18880;DHT22;9572;52.378;13.404;2024-03-25T07:01:09;6.00;99.90
18880;DHT22;9572;52.378;13.404;2024-03-25T07:03:36;6.00;99.90
18880;DHT22;9572;52.378;13.404;2024-03-25T07:06:03;6.10;99.90
18880;DHT22;9572;52.378;13.404;2024-03-25T07:08:28;6.00;99.90
18880;DHT22;9572;52.378;13.404;2024-03-25T07:10:54;6.00;99.90
18880;DHT22;9572;52.378;13.404;2024-03-25T07:13:20;6.10;99.90
18880;DHT22;9572;52.378;13.404;2024-03-25T07:15:46;6.00;99.90
18880;DHT22;9572;52.378;13.404;2024-03-25T07:18:13;6.00;99.90
18880;DHT22;9572;52.378;13.404;2024-03-25T07:20:39;6.00;99.90
18880;DHT22;9572;52.378;13.404;2024-03-25T07:23:06;6.10;99.90
18880;DHT22;9572;52.378;13.404;2024-03-25T07:25:32;6.00;99.90
18880;DHT22;9572;52.378;13.404;2024-03-25T07:27:58;6.10;99.90
18880;DHT22;9572;52.378;13.404;2024-03-25T07:30:24;6.00;99.90
18880;DHT22;9572;52.378;13.404;2024-03-25T07:32:50;6.00;99.90
18880;DHT22;9572;52.378;13.404;2024-03-25T07:35:17;5.90;99.90
18880;DHT22;9572;52.378;13.404;2024-03-25T07:37:43;5.90;99.90
18880;DHT22;9572;52.378;13.404;2024-03-25T07:40:09;6.00;99.90
18880;DHT22;9572;52.378;13.404;2024-03-25T07:42:35;6.00;99.90
18880;DHT22;9572;52.378;13.404;2024-03-25T07:45:01;6.10;99.90
18880;DHT22;9572;52.378;13.404;2024-03-25T07:47:27;6.00;99.90
18880;DHT22;9572;52.378;13.404;2024-03-25T07:49:52;6.00;99.90
18880;DHT22;9572;52.378;13.404;2024-03-25T07:52:20;6.10;99.90
18880;DHT22;9572;52.378;13.404;2024-03-25T07:54:46;6.10;99.90
18880;DHT22;9572;52.378;13.404;2024-03-25T07:57:11;6.10;99.90
18880;DHT22;9572;52.378;13.404;2024-03-25T07:59:37;6.20;99.90
18880;DHT22;9572;52.378;13.404;2024-03-25T08:02:03;6.20;99.90
18880;DHT22;9572;52.378;13.404;2024-03-25T08:04:29;6.10;99.90
18880;DHT22;9572;52.378;13.404;2024-03-25T08:06:55;6.20;99.90
18880;DHT22;9572;52.378;13.404;2024-03-25T08:09:22;6.20;99.90
18880;DHT22;9572;52.378;13.404;2024-03-25T08:11:48;6.20;99.90
18880;DHT22;9572;52.378;13.404;2024-03-25T08:14:14;6.20;99.90
18880;DHT22;9572;52.378;13.404;2024-03-25T08:16:40;6.20;99.90
18880;DHT22;9572;52.378;13.404;2024-03-25T08:19:05;6.20;99.90
18880;DHT22;9572;52.378;13.404;2024-03-25T08:21:31;6.20;99.90
18880;DHT22;9572;52.378;13.404;2024-03-25T08:23:57;6.40;99.90
18880;DHT22;9572;52.378;13.404;2024-03-25T08:26:24;6.50;99.90
18880;DHT22;9572;52.378;13.404;2024-03-25T08:28:50;6.60;99.90
18880;DHT22;9572;52.378;13.404;2024-03-25T08:31:16;6.60;99.90
18880;DHT22;9572;52.378;13.404;2024-03-25T08:33:42;6.60;99.90
18880;DHT22;9572;52.378;13.404;2024-03-25T08:36:08;6.70;99.90
18880;DHT22;9572;52.378;13.404;2024-03-25T08:38:34;6.80;99.90
18880;DHT22;9572;52.378;13.404;2024-03-25T08:40:59;6.70;99.90
18880;DHT22;9572;52.378;13.404;2024-03-25T08:43:27;6.80;99.90
18880;DHT22;9572;52.378;13.404;2024-03-25T08:45:52;6.90;99.90
18880;DHT22;9572;52.378;13.404;2024-03-25T08:48:18;6.90;99.90
18880;DHT22;9572;52.378;13.404;2024-03-25T08:50:44;6.90;99.90
18880;DHT22;9572;52.378;13.404;2024-03-25T08:53:10;6.90;99.90
18880;DHT22;9572;52.378;13.404;2024-03-25T08:55:36;6.90;99.90
18880;DHT22;9572;52.378;13.404;2024-03-25T08:58:02;7.00;99.90
18880;DHT22;9572;52.378;13.404;2024-03-25T09:00:29;7.10;99.90
18880;DHT22;9572;52.378;13.404;2024-03-25T09:02:55;7.30;99.90
18880;DHT22;9572;52.378;13.404;2024-03-25T09:05:21;7.30;99.90
18880;DHT22;9572;52.378;13.404;2024-03-25T09:07:49;7.30;99.90
18880;DHT22;9572;52.378;13.404;2024-03-25T09:10:15;7.40;99.90
18880;DHT22;9572;52.378;13.404;2024-03-25T09:13:00;7.40;99.90
18880;DHT22;9572;52.378;13.404;2024-03-25T09:15:25;7.50;99.90
18880;DHT22;9572;52.378;13.404;2024-03-25T09:17:53;7.60;99.90
18880;DHT22;9572;52.378;13.404;2024-03-25T09:20:18;7.60;99.90
18880;DHT22;9572;52.378;13.404;2024-03-25T09:22:44;7.60;99.90
18880;DHT22;9572;52.378;13.404;2024-03-25T09:25:10;7.60;99.90
18880;DHT22;9572;52.378;13.404;2024-03-25T09:27:36;7.60;99.90
18880;DHT22;9572;52.378;13.404;2024-03-25T09:30:03;7.60;99.90
18880;DHT22;9572;52.378;13.404;2024-03-25T09:32:29;7.50;99.90
18880;DHT22;9572;52.378;13.404;2024-03-25T09:34:57;7.40;99.90
18880;DHT22;9572;52.378;13.404;2024-03-25T09:37:22;7.40;99.90
18880;DHT22;9572;52.378;13.404;2024-03-25T09:39:48;7.30;99.90
18880;DHT22;9572;52.378;13.404;2024-03-25T09:42:17;7.30;99.90
18880;DHT22;9572;52.378;13.404;2024-03-25T09:44:46;7.30;99.90
18880;DHT22;9572;52.378;13.404;2024-03-25T09:47:12;7.40;99.90
18880;DHT22;9572;52.378;13.404;2024-03-25T09:49:40;7.30;99.90
18880;DHT22;9572;52.378;13.404;2024-03-25T09:52:07;7.30;99.90
18880;DHT22;9572;52.378;13.404;2024-03-25T09:54:33;7.30;99.90
18880;DHT22;9572;52.378;13.404;2024-03-25T09:57:00;7.30;99.90
18880;DHT22;9572;52.378;13.404;2024-03-25T09:59:26;7.30;99.90
18880;DHT22;9572;52.378;13.404;2024-03-25T10:01:53;7.40;99.90
18880;DHT22;9572;52.378;13.404;2024-03-25T10:04:19;7.50;99.90
18880;DHT22;9572;52.378;13.404;2024-03-25T10:06:45;7.60;99.90
18880;DHT22;9572;52.378;13.404;2024-03-25T10:09:12;7.80;99.90
18880;DHT22;9572;52.378;13.404;2024-03-25T10:11:38;8.10;99.90
18880;DHT22;9572;52.378;13.404;2024-03-25T10:14:04;8.20;99.90
18880;DHT22;9572;52.378;13.404;2024-03-25T10:16:30;8.30;99.90
18880;DHT22;9572;52.378;13.404;2024-03-25T10:18:55;8.50;99.90
18880;DHT22;9572;52.378;13.404;2024-03-25T10:21:21;8.70;99.90
18880;DHT22;9572;52.378;13.404;2024-03-25T10:23:47;8.80;99.90
18880;DHT22;9572;52.378;13.404;2024-03-25T10:26:30;9.00;99.90
18880;DHT22;9572;52.378;13.404;2024-03-25T10:29:03;9.10;99.90
18880;DHT22;9572;52.378;13.404;2024-03-25T10:31:29;9.60;99.90
18880;DHT22;9572;52.378;13.404;2024-03-25T10:33:55;9.80;99.90
18880;DHT22;9572;52.378;13.404;2024-03-25T10:36:21;9.60;99.90
18880;DHT22;9572;52.378;13.404;2024-03-25T10:38:49;9.20;99.90
18880;DHT22;9572;52.378;13.404;2024-03-25T10:41:17;9.20;99.90
18880;DHT22;9572;52.378;13.404;2024-03-25T10:43:46;9.30;99.90
18880;DHT22;9572;52.378;13.404;2024-03-25T10:46:17;9.30;99.90
18880;DHT22;9572;52.378;13.404;2024-03-25T10:48:48;9.50;99.90
18880;DHT22;9572;52.378;13.404;2024-03-25T10:51:15;9.70;99.90
18880;DHT22;9572;52.378;13.404;2024-03-25T10:53:43;10.00;99.90
18880;DHT22;9572;52.378;13.404;2024-03-25T10:56:10;10.10;99.90
18880;DHT22;9572;52.378;13.404;2024-03-25T10:58:38;10.20;99.90
18880;DHT22;9572;52.378;13.404;2024-03-25T11:01:07;9.90;99.90
18880;DHT22;9572;52.378;13.404;2024-03-25T11:03:33;9.70;99.90
18880;DHT22;9572;52.378;13.404;2024-03-25T11:06:00;9.70;99.90
18880;DHT22;9572;52.378;13.404;2024-03-25T11:08:31;9.50;99.90
18880;DHT22;9572;52.378;13.404;2024-03-25T11:10:57;9.40;99.90
18880;DHT22;9572;52.378;13.404;2024-03-25T11:13:23;9.40;99.90
18880;DHT22;9572;52.378;13.404;2024-03-25T11:15:49;9.20;99.90
18880;DHT22;9572;52.378;13.404;2024-03-25T11:18:18;9.00;99.90
18880;DHT22;9572;52.378;13.404;2024-03-25T11:20:44;8.90;99.90
18880;DHT22;9572;52.378;13.404;2024-03-25T11:23:10;8.60;99.90
18880;DHT22;9572;52.378;13.404;2024-03-25T11:25:37;8.30;99.90
18880;DHT22;9572;52.378;13.404;2024-03-25T11:28:03;8.30;99.90
18880;DHT22;9572;52.378;13.404;2024-03-25T11:30:30;8.50;99.90
18880;DHT22;9572;52.378;13.404;2024-03-25T11:32:56;8.80;99.90
18880;DHT22;9572;52.378;13.404;2024-03-25T11:35:23;8.90;99.90
18880;DHT22;9572;52.378;13.404;2024-03-25T11:37:49;9.00;99.90
18880;DHT22;9572;52.378;13.404;2024-03-25T11:40:16;9.10;99.90
18880;DHT22;9572;52.378;13.404;2024-03-25T11:42:42;9.10;99.90
18880;DHT22;9572;52.378;13.404;2024-03-25T11:45:14;9.20;99.90
18880;DHT22;9572;52.378;13.404;2024-03-25T11:47:41;9.20;99.90
18880;DHT22;9572;52.378;13.404;2024-03-25T11:50:08;9.20;99.90
18880;DHT22;9572;52.378;13.404;2024-03-25T11:52:36;9.40;99.90
18880;DHT22;9572;52.378;13.404;2024-03-25T11:55:02;9.40;99.90
18880;DHT22;9572;52.378;13.404;2024-03-25T11:57:28;9.60;99.90
18880;DHT22;9572;52.378;13.404;2024-03-25T11:59:54;9.70;99.90
18880;DHT22;9572;52.378;13.404;2024-03-25T12:02:20;9.80;99.90
18880;DHT22;9572;52.378;13.404;2024-03-25T12:04:47;10.00;99.90
18880;DHT22;9572;52.378;13.404;2024-03-25T12:07:13;10.00;99.90
18880;DHT22;9572;52.378;13.404;2024-03-25T12:09:41;10.20;99.90
18880;DHT22;9572;52.378;13.404;2024-03-25T12:12:26;10.20;99.90
18880;DHT22;9572;52.378;13.404;2024-03-25T12:14:52;10.20;99.90
18880;DHT22;9572;52.378;13.404;2024-03-25T12:17:19;10.20;99.90
18880;DHT22;9572;52.378;13.404;2024-03-25T12:19:45;10.30;99.90
18880;DHT22;9572;52.378;13.404;2024-03-25T12:22:11;10.50;99.90
18880;DHT22;9572;52.378;13.404;2024-03-25T12:24:37;10.60;99.90
18880;DHT22;9572;52.378;13.404;2024-03-25T12:27:04;10.60;99.90
18880;DHT22;9572;52.378;13.404;2024-03-25T12:29:31;10.50;99.90
18880;DHT22;9572;52.378;13.404;2024-03-25T12:31:57;10.60;99.90
18880;DHT22;9572;52.378;13.404;2024-03-25T12:34:25;10.50;99.90
18880;DHT22;9572;52.378;13.404;2024-03-25T12:36:51;10.50;99.90
18880;DHT22;9572;52.378;13.404;2024-03-25T12:39:17;10.60;99.90
18880;DHT22;9572;52.378;13.404;2024-03-25T12:41:43;10.70;99.90
18880;DHT22;9572;52.378;13.404;2024-03-25T12:44:12;10.60;99.90
18880;DHT22;9572;52.378;13.404;2024-03-25T12:46:38;10.60;99.90
18880;DHT22;9572;52.378;13.404;2024-03-25T12:49:05;10.60;99.90
18880;DHT22;9572;52.378;13.404;2024-03-25T12:51:31;10.60;99.90
18880;DHT22;9572;52.378;13.404;2024-03-25T12:53:56;10.60;99.90
18880;DHT22;9572;52.378;13.404;2024-03-25T12:56:22;10.70;99.90
18880;DHT22;9572;52.378;13.404;2024-03-25T12:58:48;10.80;99.90
18880;DHT22;9572;52.378;13.404;2024-03-25T13:01:15;11.00;99.90
18880;DHT22;9572;52.378;13.404;2024-03-25T13:03:42;11.20;99.90
18880;DHT22;9572;52.378;13.404;2024-03-25T13:06:08;11.30;99.90
18880;DHT22;9572;52.378;13.404;2024-03-25T13:08:34;11.10;99.90
18880;DHT22;9572;52.378;13.404;2024-03-25T13:10:59;11.00;99.90
18880;DHT22;9572;52.378;13.404;2024-03-25T13:13:25;10.90;99.90
18880;DHT22;9572;52.378;13.404;2024-03-25T13:15:51;10.80;99.90
18880;DHT22;9572;52.378;13.404;2024-03-25T13:18:18;10.70;99.90
18880;DHT22;9572;52.378;13.404;2024-03-25T13:20:45;10.80;99.90
18880;DHT22;9572;52.378;13.404;2024-03-25T13:23:10;10.80;99.90
18880;DHT22;9572;52.378;13.404;2024-03-25T13:25:36;10.70;99.90
18880;DHT22;9572;52.378;13.404;2024-03-25T13:28:02;10.70;99.90
18880;DHT22;9572;52.378;13.404;2024-03-25T13:30:30;10.80;99.90
18880;DHT22;9572;52.378;13.404;2024-03-25T13:32:57;11.10;99.90
18880;DHT22;9572;52.378;13.404;2024-03-25T13:35:24;11.50;99.90
18880;DHT22;9572;52.378;13.404;2024-03-25T13:37:50;11.80;99.90
18880;DHT22;9572;52.378;13.404;2024-03-25T13:40:16;11.90;99.90
18880;DHT22;9572;52.378;13.404;2024-03-25T13:42:41;11.80;99.90
18880;DHT22;9572;52.378;13.404;2024-03-25T13:45:08;11.70;99.90
18880;DHT22;9572;52.378;13.404;2024-03-25T13:47:34;11.60;99.90
18880;DHT22;9572;52.378;13.404;2024-03-25T13:50:03;11.70;99.90
18880;DHT22;9572;52.378;13.404;2024-03-25T13:52:30;11.80;99.90
18880;DHT22;9572;52.378;13.404;2024-03-25T13:54:56;11.70;99.90
18880;DHT22;9572;52.378;13.404;2024-03-25T13:57:22;11.50;99.90
18880;DHT22;9572;52.378;13.404;2024-03-25T13:59:49;11.40;99.90
18880;DHT22;9572;52.378;13.404;2024-03-25T14:02:15;11.40;99.90
18880;DHT22;9572;52.378;13.404;2024-03-25T14:04:41;11.30;99.90
18880;DHT22;9572;52.378;13.404;2024-03-25T14:07:07;11.30;99.90
18880;DHT22;9572;52.378;13.404;2024-03-25T14:09:34;11.20;99.90
18880;DHT22;9572;52.378;13.404;2024-03-25T14:12:00;11.20;99.90
18880;DHT22;9572;52.378;13.404;2024-03-25T14:14:26;11.10;99.90
18880;DHT22;9572;52.378;13.404;2024-03-25T14:16:52;11.10;99.90
18880;DHT22;9572;52.378;13.404;2024-03-25T14:19:18;11.20;99.90
18880;DHT22;9572;52.378;13.404;2024-03-25T14:21:43;11.00;99.90
18880;DHT22;9572;52.378;13.404;2024-03-25T14:24:09;11.00;99.90
18880;DHT22;9572;52.378;13.404;2024-03-25T14:26:36;11.00;99.90
18880;DHT22;9572;52.378;13.404;2024-03-25T14:29:02;11.20;99.90
18880;DHT22;9572;52.378;13.404;2024-03-25T14:31:28;11.40;99.90
18880;DHT22;9572;52.378;13.404;2024-03-25T14:33:54;11.40;99.90
18880;DHT22;9572;52.378;13.404;2024-03-25T14:36:20;11.40;99.90
18880;DHT22;9572;52.378;13.404;2024-03-25T14:38:46;11.30;99.90
18880;DHT22;9572;52.378;13.404;2024-03-25T14:41:12;11.20;99.90
18880;DHT22;9572;52.378;13.404;2024-03-25T14:43:39;11.30;99.90
18880;DHT22;9572;52.378;13.404;2024-03-25T14:46:05;11.00;99.90
18880;DHT22;9572;52.378;13.404;2024-03-25T14:48:31;10.90;99.90
18880;DHT22;9572;52.378;13.404;2024-03-25T14:50:57;10.80;99.90
18880;DHT22;9572;52.378;13.404;2024-03-25T14:53:23;10.80;99.90
18880;DHT22;9572;52.378;13.404;2024-03-25T14:55:49;10.70;99.90
18880;DHT22;9572;52.378;13.404;2024-03-25T14:58:14;10.60;99.90
18880;DHT22;9572;52.378;13.404;2024-03-25T15:00:42;10.60;99.90
18880;DHT22;9572;52.378;13.404;2024-03-25T15:03:07;10.60;99.90
18880;DHT22;9572;52.378;13.404;2024-03-25T15:05:33;10.50;99.90
18880;DHT22;9572;52.378;13.404;2024-03-25T15:07:59;10.40;99.90
18880;DHT22;9572;52.378;13.404;2024-03-25T15:10:26;10.40;99.90
18880;DHT22;9572;52.378;13.404;2024-03-25T15:12:52;10.40;99.90
18880;DHT22;9572;52.378;13.404;2024-03-25T15:15:18;10.50;99.90
18880;DHT22;9572;52.378;13.404;2024-03-25T15:17:45;10.70;99.90
18880;DHT22;9572;52.378;13.404;2024-03-25T15:20:11;10.70;99.90
18880;DHT22;9572;52.378;13.404;2024-03-25T15:22:37;10.70;99.90
18880;DHT22;9572;52.378;13.404;2024-03-25T15:25:04;10.70;99.90
18880;DHT22;9572;52.378;13.404;2024-03-25T15:27:30;10.70;99.90
18880;DHT22;9572;52.378;13.404;2024-03-25T15:29:55;10.70;99.90
18880;DHT22;9572;52.378;13.404;2024-03-25T15:32:21;10.70;99.90
18880;DHT22;9572;52.378;13.404;2024-03-25T15:34:48;10.40;99.90
18880;DHT22;9572;52.378;13.404;2024-03-25T15:37:14;10.10;99.90